logo
Games tagged Thriller
# Game Release date
Price
Score rank
(Userscore / Metascore)
Owners
Players
Playtime (Median)
Developer(s)
Publisher(s)
1 F.E.A.R. May 21, 2010 $54.99N/A (N/A/88%)1,000,000 .. 2,000,0000%00:00 (00:00)Monolith Productions, Inc., TimegateWarner Bros. Interactive Entertainment
2 Lacuna – A Sci-Fi Noir Adventure May 20, 2021 $11.19N/A (N/A/88%)200,000 .. 500,0000%00:00 (00:00)DigiTales InteractiveAssemble Entertainment, WhisperGames, Mayflower Entertainment
3 STEINS;GATE Sep 8, 2016 $29.99N/A (N/A/87%)200,000 .. 500,0000%00:00 (00:00)MAGES. Inc.Spike Chunsoft Co., Ltd.
4 Blind Drive Mar 10, 2021 $9.99N/A (N/A/87%)0 .. 20,0000%00:00 (00:00)Lo-Fi PeopleLo-Fi People
5 Zero Escape: The Nonary Games Mar 24, 2017 $29.99N/A (N/A/86%)100,000 .. 200,0000%00:00 (00:00)Spike Chunsoft Co., Ltd.Spike Chunsoft Co., Ltd.
6 Her Story Jun 24, 2015 $9.99N/A (N/A/86%)1,000,000 .. 2,000,0000%00:00 (00:00)Sam BarlowSam Barlow
7 Telling Lies Aug 23, 2019 $19.99N/A (N/A/84%)50,000 .. 100,0000%00:00 (00:00)Sam Barlow, Half Mermaid, Furious Bee LimitedAnnapurna Interactive
8 Detention Jan 12, 2017 $5.99N/A (N/A/83%)500,000 .. 1,000,0000%00:00 (00:00)RedCandleGamesRedCandleGames, AGM PLAYISM
9 Alan Wake Feb 16, 2012 $14.99N/A (N/A/83%)2,000,000 .. 5,000,0000.66%00:10 (00:03)Remedy EntertainmentRemedy Entertainment
10 L.A. Noire Nov 8, 2011 $19.99N/A (N/A/83%)2,000,000 .. 5,000,0000.74%00:02 (00:00)Team Bondi, Rockstar LeedsRockstar Games
11 Little Nightmares II Feb 10, 2021 $29.99N/A (N/A/83%)200,000 .. 500,0000%00:00 (00:00)Tarsier StudiosBANDAI NAMCO Entertainment
12 Stories Untold Feb 27, 2017 $2.49N/A (N/A/81%)100,000 .. 200,0000%00:00 (00:00)No CodeDevolver Digital
13 Firewatch Feb 9, 2016 $19.99N/A (N/A/81%)1,000,000 .. 2,000,0000%00:00 (00:00)Campo SantoPanic, Campo Santo
14 Detective Di: The Silk Rose Murders May 1, 2019 $10.99N/A (N/A/80%)50,000 .. 100,0000%00:00 (00:00)Nupixo GamesNupixo Games, WhisperGames
15 Oxenfree Jan 14, 2016 $9.99N/A (N/A/80%)200,000 .. 500,0000%00:00 (00:00)Night School StudioNight School Studio
16 Observation May 21, 2020 $24.99N/A (N/A/79%)100,000 .. 200,0000%00:00 (00:00)No CodeDevolver Digital
17 Late Shift Apr 18, 2017 $12.99N/A (N/A/79%)200,000 .. 500,0002.38%04:32 (01:30)CtrlMovieWales Interactive
18 Dead Space 3 Feb 5, 2013 $19.99N/A (N/A/78%)500,000 .. 1,000,00011.11%03:23 (03:22)Visceral GamesElectronic Arts
19 Zero Escape: Zero Time Dilemma Jun 29, 2016 $19.99N/A (N/A/78%)500,000 .. 1,000,0000%00:00 (00:00)Spike Chunsoft Co., Ltd.Spike Chunsoft Co., Ltd.
20 Condemned: Criminal Origins Apr 11, 2006 $14.95N/A (N/A/78%)500,000 .. 1,000,0000%00:00 (00:00)MonolithSEGA
21 Beyond: Two Souls Jun 18, 2020 $19.99N/A (N/A/76%)200,000 .. 500,0000%00:00 (00:00)Quantic DreamQuantic Dream
22 Heavy Rain Jun 18, 2020 $19.99N/A (N/A/75%)200,000 .. 500,0000%00:00 (00:00)Quantic DreamQuantic Dream
23 Evan's Remains Jun 11, 2020 $6.99N/A (N/A/75%)20,000 .. 50,0000%00:00 (00:00)maitan69 (Matías Schmied)Whitethorn Digital
24 VirtuaVerse May 12, 2020 $14.99N/A (N/A/75%)100,000 .. 200,0000%00:00 (00:00)Theta DivisionBlood Music
25 We. The Revolution Mar 21, 2019 $19.99N/A (N/A/75%)100,000 .. 200,0000%00:00 (00:00)PolyslashKlabater
26 GET EVEN Jun 20, 2017 $29.99N/A (N/A/75%)20,000 .. 50,0000%00:00 (00:00)The Farm 51BANDAI NAMCO Entertainment
27 Root Double -Before Crime * After Days- Xtend Edition Apr 27, 2016 $34.99N/A (N/A/75%)20,000 .. 50,0000%00:00 (00:00)Yeti, RegistaSekai Project
28 Still Life Jun 1, 2011 $7.99N/A (N/A/75%)100,000 .. 200,0000%00:00 (00:00)MicroidsMicroids
29 Virginia Sep 22, 2016 $9.99N/A (N/A/74%)100,000 .. 200,0000%00:00 (00:00)Variable State505 Games
30 Alan Wake's American Nightmare May 22, 2012 $8.99N/A (N/A/73%)1,000,000 .. 2,000,0000.95%00:14 (00:04)Remedy EntertainmentRemedy Entertainment
31 Sherlock Holmes versus Jack the Ripper Dec 23, 2009 $1.99N/A (N/A/73%)100,000 .. 200,0000%00:00 (00:00)FrogwaresFrogwares
32 Mundaun Mar 16, 2021 $19.99N/A (N/A/72%)0 .. 20,0000%00:00 (00:00)Hidden FieldsMWM Interactive
33 Gray Dawn Jun 7, 2018 FreeN/A (N/A/71%)20,000 .. 50,0000%00:00 (00:00)Interactive StoneInteractive Stone
34 Post Mortem Aug 26, 2011 $7.99N/A (N/A/71%)100,000 .. 200,0000%00:00 (00:00)MC2Microids
35 The Sinking City Feb 26, 2021 $39.99N/A (N/A/71%)50,000 .. 100,0000%00:00 (00:00)FrogwaresNacon
36 Moons of Madness Oct 22, 2019 $24.99N/A (N/A/69%)100,000 .. 200,0000%00:00 (00:00)Rock Pocket GamesFuncom
37 The Fidelio Incident May 23, 2017 $9.99N/A (N/A/69%)20,000 .. 50,0000%00:00 (00:00)Act 3 Games, LLCAct 3 Games, LLC
38 Home Aug 31, 2012 $4.99N/A (N/A/69%)200,000 .. 500,0000%00:00 (00:00)Benjamin Rivers Inc.Benjamin Rivers Inc.
39 The Shattering Apr 21, 2020 $19.99N/A (N/A/68%)0 .. 20,0000%00:00 (00:00)Super Sexy SoftwareDeck13
40 The Occupation Mar 5, 2019 $29.99N/A (N/A/68%)0 .. 20,0000%00:00 (00:00)White Paper GamesHumble Games
41 Hide and Shriek Oct 25, 2016 FreeN/A (N/A/68%)200,000 .. 500,0001.19%00:32 (00:10)FuncomFuncom
42 The Signifier Oct 15, 2020 $19.99N/A (N/A/68%)0 .. 20,0000%00:00 (00:00)PlaymestudioRaw Fury
43 Rainswept Feb 1, 2019 $11.99N/A (N/A/67%)0 .. 20,0000%00:00 (00:00)Frostwood InteractiveFrostwood Interactive
44 The Park Oct 27, 2015 $12.99N/A (N/A/67%)100,000 .. 200,0000%00:00 (00:00)FuncomFuncom
45 The Inner Friend Sep 6, 2018 $14.99N/A (N/A/66%)0 .. 20,0000%00:00 (00:00)PLAYMINDPLAYMIND
46 Sherlock Holmes: The Devil's Daughter Jun 10, 2016 $5.99N/A (N/A/65%)200,000 .. 500,0000%00:00 (00:00)FrogwaresFrogwares
47 Gods Will Be Watching Jul 24, 2014 $9.99N/A (N/A/64%)200,000 .. 500,0005.26%00:26 (00:08)DeconstructeamDevolver Digital
48 The Complex Mar 31, 2020 $12.99N/A (N/A/62%)50,000 .. 100,0000%00:00 (00:00)Wales Interactive, Good Gate Media, Little Jade ProductionsWales Interactive
49 Magnetic: Cage Closed May 26, 2015 $4.99N/A (N/A/61%)20,000 .. 50,0000%00:00 (00:00)Guru GamesGood Shepherd Entertainment
50 Black Mirror I Jun 17, 2014 $9.99N/A (N/A/60%)100,000 .. 200,0000%00:00 (00:00)Future Games, Unknown IdentityTHQ Nordic
51 TARTARUS Nov 21, 2017 $19.99N/A (N/A/59%)0 .. 20,0000%00:00 (00:00)Abyss GameworksAbyss Gameworks
52 Deadly Premonition: The Director's Cut Oct 29, 2013 $24.99N/A (N/A/59%)200,000 .. 500,0000%00:00 (00:00)Rising Star GamesRising Star Games
53 The Bunker Sep 20, 2016 $12.99N/A (N/A/57%)50,000 .. 100,0000%00:00 (00:00)Splendy Interactive, Wales InteractiveWales Interactive
54 Soul Axiom Feb 29, 2016 N/AN/A (N/A/57%)50,000 .. 100,0000%00:00 (00:00)Wales InteractiveWales Interactive
55 Bohemian Killing Jul 21, 2016 $12.99N/A (N/A/55%)20,000 .. 50,0000%00:00 (00:00)The MoonwallsLibredia Entertainment
56 Angelo and Deemon: One Hell of a Quest Sep 27, 2019 $9.99N/A (N/A/53%)0 .. 20,0000%00:00 (00:00)Specialbit StudioSpecialbit Studio
57 No70: Eye of Basir Jun 28, 2017 $9.99N/A (N/A/52%)0 .. 20,0000%00:00 (00:00)Oldmoustache GameworksArtcom FZC
58 Daylight Apr 29, 2014 $4.99N/A (N/A/51%)100,000 .. 200,0000%00:00 (00:00)Zombie StudiosZombie Studios
59 Those Who Remain May 28, 2020 $19.99N/A (N/A/48%)0 .. 20,0000%00:00 (00:00)Camel 101Wired Productions, WhisperGames
60 Past Cure Feb 23, 2018 $29.99N/A (N/A/48%)0 .. 20,0000%00:00 (00:00)Phantom 8 StudioPhantom 8 Studio
61 The Flock Aug 21, 2015 $16.99N/A (N/A/36%)20,000 .. 50,0000%00:00 (00:00)VogelsapVogelsap
62 Inferno Oct 1, 2020 $6.99N/A (N/A)0 .. 20,0000%00:00 (00:00)Aldorlea GamesAldorlea Games
63 Phasmophobia Sep 18, 2020 $13.99N/A (N/A)5,000,000 .. 10,000,00012.22%04:14 (02:00)Kinetic GamesKinetic Games
64 Tomato Way 3 Sep 15, 2020 $14.99N/A (N/A)0 .. 20,0000%00:00 (00:00)Vladislav Castillo GonzalezVladislav Castillo Gonzalez
65 Midnight Scenes Episode 2 (Special Edition) Sep 8, 2020 $3.59N/A (N/A)20,000 .. 50,0000%00:00 (00:00)Octavi NavarroOctavi Navarro
66 Sleep Sep 8, 2020 $2.99N/A (N/A)0 .. 20,0000%00:00 (00:00)Black appleBlack apple
67 EscapeVr Sep 1, 2020 $14.99N/A (N/A)20,000 .. 50,0000%00:00 (00:00)Fence-InFence-In
68 Greyhat - A Digital Detective Adventure Aug 31, 2020 $11.99N/A (N/A)0 .. 20,0000%00:00 (00:00)Limited GamesLimited Games
69 MOTHER Aug 27, 2020 $2.99N/A (N/A)0 .. 20,0000%00:00 (00:00)Irwin SegaraneIrwin Segarane
70 PANIC STATION Aug 25, 2020 $1.99N/A (N/A)0 .. 20,0000%00:00 (00:00)Forest GamesForest Games
71 Jessika Aug 25, 2020 $12.49N/A (N/A)0 .. 20,0000%00:00 (00:00)Tritrie GamesAssemble Entertainment
72 MBHL20 Aug 21, 2020 $4.99N/A (N/A)0 .. 20,0000%00:00 (00:00)Halt StudiosHalt Studios
73 黑色花与红山羊 / Black Datura & Red Goat Aug 21, 2020 $7.99N/A (N/A)0 .. 20,0000%00:00 (00:00)Angels Blue Digital Entertainment, LadomuGamera Game
74 Dread X Collection 2 Aug 21, 2020 $9.99N/A (N/A)0 .. 20,0000%00:00 (00:00)Dread XP, David Szymanski, Torple Dook, Lovely Hellplace, Scythe Dev Team, Secret Cow Level, panstasz, Mahelyk, Daniel Mullins Games, Wither Studios, Akabaka, Vidas Salavejus, Wayward Preacher, John Szymanski, Bathysfear LabsDread XP
75 DEDstress Aug 20, 2020 $9.99N/A (N/A)0 .. 20,0000%00:00 (00:00)3StrakGames3StrakGames
76 Dream Of Salmon Aug 15, 2020 $1.99N/A (N/A)0 .. 20,0000%00:00 (00:00)D.VirusD.Virus
77 Gurobu Aug 14, 2020 $1.99N/A (N/A)20,000 .. 50,0000%00:00 (00:00)Aiaz MarxAiaz Marx
78 Manipulate: Sacrifice Aug 12, 2020 $6.99N/A (N/A)0 .. 20,0000%00:00 (00:00)MELPYAMELPYA
79 Dark Tales: Edgar Allan Poe's The Devil in the Belfry Collector's Edition Aug 7, 2020 $9.99N/A (N/A)0 .. 20,0000%00:00 (00:00)AMAX InteractiveBig Fish Games
80 Don't Look Aug 7, 2020 FreeN/A (N/A)0 .. 20,0000%00:00 (00:00)DygoDevDygoDev
81 A Night In Berlin Aug 7, 2020 FreeN/A (N/A)100,000 .. 200,0000%00:00 (00:00)Unlimina SoftwareBad Smile Media
82 Eyes of The Mirror Aug 6, 2020 N/AN/A (N/A)0 .. 20,0000%00:00 (00:00)Fatih MertFatih Mert
83 Wait! Life is Beautiful! Prologue Aug 6, 2020 FreeN/A (N/A)0 .. 20,0000%00:00 (00:00)[DRAMATIC MUSIC PLAYS]GameNet
84 Corridors of their memories Aug 3, 2020 $2.99N/A (N/A)0 .. 20,0000%00:00 (00:00)AlkinoyAlkinoy
85 Lockheart Indigo Jul 31, 2020 FreeN/A (N/A)0 .. 20,0000%00:00 (00:00)Harmless GamesHarmless Games
86 Zango's Shark Adventure Jul 31, 2020 $4.99N/A (N/A)0 .. 20,0000%00:00 (00:00)ReflectiveByteReflectiveByte
87 My Silly Life Jul 29, 2020 $0.99N/A (N/A)0 .. 20,0000%00:00 (00:00)storkyproduct.storkyproduct.
88 Humans V Zombies Jul 29, 2020 FreeN/A (N/A)0 .. 20,0000%00:00 (00:00)Pasha Utt, Jong Jiang KwangEgg Splat Studios
89 InMaze Jul 28, 2020 $2.99N/A (N/A)20,000 .. 50,0000%00:00 (00:00)AppVator InteractiveAppVator Interactive
90 The Soldiers Factory Jul 27, 2020 $17.99N/A (N/A)20,000 .. 50,0000%00:00 (00:00)Bommi ProduktionBommi Produktion
91 Synergia Jul 27, 2020 $11.99N/A (N/A)0 .. 20,0000%00:00 (00:00)Radi ArtTop Hat Studios Inc
92 Terrordrome - Reign of the Legends Jul 24, 2020 $14.99N/A (N/A)50,000 .. 100,0000%00:00 (00:00)Huracan StudioHuracan Studio
93 There Was the Moon Jul 24, 2020 $9.99N/A (N/A)0 .. 20,0000%00:00 (00:00)Ben LapidBunso
94 White Wings ホワイトウィングス Jul 17, 2020 $6.79N/A (N/A)0 .. 20,0000%00:00 (00:00)Pureworks Japan 株式会社Pureworks Japan 株式会社
95 Family Mysteries 3: Criminal Mindset Jul 16, 2020 $14.99N/A (N/A)0 .. 20,0000%00:00 (00:00)Brave Giant LTDArtifex Mundi
96 Beyond a Steel Sky Jul 16, 2020 $34.99N/A (N/A)50,000 .. 100,0000%00:00 (00:00)Revolution Software LtdRevolution Software Ltd
97 Commander '85 Prologue Jul 16, 2020 FreeN/A (N/A)0 .. 20,0000%00:00 (00:00)The MoonwallsUltimate Games S.A.
98 离校日 The School Leaving Day Jul 16, 2020 $5.99N/A (N/A)20,000 .. 50,0000%00:00 (00:00)Dracul AurionAurion Entertainment
99 EDGE OF DAWN Jul 15, 2020 $14.99N/A (N/A)0 .. 20,0000%00:00 (00:00)Western WerksWestern Werks
100 Dark Room Jul 15, 2020 $2.99N/A (N/A)0 .. 20,0000%00:00 (00:00)Lexip GamesLexip Games
101 DR MILOS REVENGE Jul 10, 2020 $1.99N/A (N/A)0 .. 20,0000%00:00 (00:00)GameDevMootGameDevMoot
102 Our Secret Below Jul 10, 2020 $9.99N/A (N/A)0 .. 20,0000%00:00 (00:00)DarkStone DigitalDarkStone Digital
103 Swallow The Blue Jul 7, 2020 N/AN/A (N/A)20,000 .. 50,0000%00:00 (00:00)Euphoric BrothersEuphoric Brothers
104 The Peresmeshnik Jul 7, 2020 FreeN/A (N/A)20,000 .. 50,0000%00:00 (00:00)Sean ArnoldSean Arnold
105 Paper Dolls 2 纸人贰 Jul 2, 2020 $19.99N/A (N/A)20,000 .. 50,0000%00:00 (00:00)Beijing Litchi Culture Media Co., Ltd.Beijing Litchi Culture Media Co., Ltd.
106 Haunted Hotel: Lost Time Collector's Edition Jun 19, 2020 $9.99N/A (N/A)0 .. 20,0000%00:00 (00:00)Elephant GamesBig Fish Games
107 Interrogation Files: Port Landsend Jun 18, 2020 $6.99N/A (N/A)0 .. 20,0000%00:00 (00:00)Visual InteractiveVisual Interactive
108 The Swine Jun 18, 2020 $1.99N/A (N/A)20,000 .. 50,0000%00:00 (00:00)Vincent LadeVincent Lade
109 Saint Kotar: The Yellow Mask Jun 17, 2020 FreeN/A (N/A)20,000 .. 50,0000%00:00 (00:00)Red Martyr EntertainmentRed Martyr Entertainment
110 Demonic Blade Jun 17, 2020 $0.99N/A (N/A)0 .. 20,0000%00:00 (00:00)Mikołaj SpychałMikołaj Spychał
111 Eldritch University Jun 11, 2020 $5.99N/A (N/A)0 .. 20,0000%00:00 (00:00)NightshadeNightshade
112 Human Origin Jun 10, 2020 $0.99N/A (N/A)0 .. 20,0000%00:00 (00:00)AmyBerylAmyBeryl
113 The Hand of Glory Jun 9, 2020 FreeN/A (N/A)0 .. 20,0000%00:00 (00:00)Madit Entertainment, Daring TouchMadit Entertainment, Daring Touch
114 A Hand With Many Fingers Jun 9, 2020 $4.99N/A (N/A)0 .. 20,0000%00:00 (00:00)ColestiaColestia
115 HopBound Jun 9, 2020 $1.99N/A (N/A)0 .. 20,0000%00:00 (00:00)Darius Immanuel D. GuerreroAppSir, Inc.
116 My Hidden Things Jun 4, 2020 $8.99N/A (N/A)0 .. 20,0000%00:00 (00:00)Six DotsSix Dots
117 Apoc Runner May 31, 2020 FreeN/A (N/A)0 .. 20,0000%00:00 (00:00)Omnitron StudiosOmnitron Studios
118 Meridian 157: Chapter 2 May 30, 2020 $2.99N/A (N/A)0 .. 20,0000%00:00 (00:00)NovaSoft Interactive Ltd.NovaSoft Interactive Ltd.
119 Ghost of Tomorrow May 25, 2020 $2.99N/A (N/A)0 .. 20,0000%00:00 (00:00)Ed LioniEd Lioni
120 Hedera May 21, 2020 $2.99N/A (N/A)0 .. 20,0000%00:00 (00:00)Aiaz MarxAiaz Marx
121 Night Spasm May 15, 2020 $9.99N/A (N/A)0 .. 20,0000%00:00 (00:00)Gideon MoesGideon Moes
122 Hidden May 15, 2020 $0.99N/A (N/A)0 .. 20,0000%00:00 (00:00)OlscOlsc
123 Cat in the Box May 1, 2020 $4.89N/A (N/A)0 .. 20,0000%00:00 (00:00)GustavPsychoFlux Entertainment
124 노베나 디아볼로스 Apr 26, 2020 $18.99N/A (N/A)50,000 .. 100,0000%00:00 (00:00)H5DEV GamesH5DEV Games
125 Locked Up Apr 23, 2020 $12.99N/A (N/A)0 .. 20,0000%00:00 (00:00)EMIKA_GAMESEMIKA_GAMES
126 No one lives under the lighthouse Apr 21, 2020 $6.99N/A (N/A)20,000 .. 50,0000%00:00 (00:00)Sowoke Entertainment BureauSowoke Entertainment Bureau
127 The Flower Collectors Apr 21, 2020 $19.99N/A (N/A)0 .. 20,0000%00:00 (00:00)Mi'pu'mi Games GmbHMi'pu'mi Games GmbH
128 My Hole is a Mouth of Dirt Apr 13, 2020 FreeN/A (N/A)0 .. 20,0000%00:00 (00:00)Yai GameworksYai Gameworks
129 We Went Back Apr 3, 2020 FreeN/A (N/A)200,000 .. 500,0000%00:00 (00:00)Dead Thread GamesDead Thread Games
130 Over the Alps Mar 31, 2020 $12.99N/A (N/A)0 .. 20,0000%00:00 (00:00)Stave StudiosStave Studios
131 Inside The Mirror Mar 25, 2020 $2.99N/A (N/A)0 .. 20,0000%00:00 (00:00)Stairs ProductionsStairs Productions
132 Em-A-Zurvival Mar 23, 2020 $3.99N/A (N/A)20,000 .. 50,0000%00:00 (00:00)YobobY.B.
133 Moonlight Mansion Mar 16, 2020 FreeN/A (N/A)0 .. 20,0000%00:00 (00:00)Monocarpic GameCNM
134 Return to Shironagasu Island Mar 2, 2020 $4.99N/A (N/A)20,000 .. 50,0000%00:00 (00:00)HYOGO ONIMUSHITABINOMICHI
135 Smile Feb 27, 2020 $1.99N/A (N/A)0 .. 20,0000%00:00 (00:00)Ecco StudiosEcco Studios
136 The Suicide of Rachel Foster Feb 19, 2020 $17.99N/A (N/A)50,000 .. 100,0000%00:00 (00:00)ONE-O-ONE GAMESDaedalic Entertainment
137 Desert of Doitjma Feb 8, 2020 $0.99N/A (N/A)0 .. 20,0000%00:00 (00:00)ConmtrastConmtrast
138 Dead Dreams Feb 6, 2020 $7.99N/A (N/A)20,000 .. 50,0000%00:00 (00:00)Aiaz MarxAiaz Marx
139 Somewhere: Sect of Relic Jan 29, 2020 $1.24N/A (N/A)0 .. 20,0000%00:00 (00:00)Junla Games StudiosJunla Games
140 Immanence Jan 22, 2020 FreeN/A (N/A)0 .. 20,0000%00:00 (00:00)Cat In A Jar GamesCat In A Jar Games
141 港詭實錄ParanormalHK Jan 6, 2020 $12.99N/A (N/A)200,000 .. 500,0000%00:00 (00:00)Ghostpie StudioGhostpie Studio, Gamera Game
142 Em-A-Li Jan 1, 2020 $1.99N/A (N/A)0 .. 20,0000%00:00 (00:00)YobobY.B.
143 The Land of Crows Dec 23, 2019 FreeN/A (N/A)0 .. 20,0000%00:00 (00:00)GemloreGemlore
144 Devil Threats Dec 12, 2019 $4.99N/A (N/A)0 .. 20,0000%00:00 (00:00)AFROX GAMEAFROX GAME
145 Twin Peaks VR Dec 12, 2019 $9.99N/A (N/A)0 .. 20,0000%00:00 (00:00)Revog GamesShowtime, Ron Revog
146 Suite 776 Dec 6, 2019 $3.99N/A (N/A)0 .. 20,0000%00:00 (00:00)Stanislaw TruchowskiTurnVex
147 The Lighthouse Oct 31, 2019 $24.99N/A (N/A)20,000 .. 50,0000%00:00 (00:00)Shadow Knights StudioShadow Knights Studio
148 Lightmare Castle Oct 31, 2019 $7.99N/A (N/A)0 .. 20,0000%00:00 (00:00)Funderground GamesFunderground Games
149 PAGAN PEAK VR Oct 30, 2019 $7.99N/A (N/A)0 .. 20,0000%00:00 (00:00)anotherworld GmbHanotherworld GmbH
150 Dark Zone Defense Oct 30, 2019 $0.49N/A (N/A)20,000 .. 50,0000%00:00 (00:00)Supernature StudioSupernature Studio
151 Meridian 157: Chapter 1 Oct 30, 2019 $2.99N/A (N/A)0 .. 20,0000%00:00 (00:00)NovaSoft Interactive Ltd.NovaSoft Interactive Ltd.
152 Interactive Horror Stories Oct 25, 2019 FreeN/A (N/A)20,000 .. 50,0000%00:00 (00:00)Aslan Game StudioAslan Game Studio
153 Secret Neighbor: Hello Neighbor Multiplayer Oct 24, 2019 $19.99N/A (N/A)200,000 .. 500,0006.45%02:28 (01:38)Hologryph, Eerie Guest StudiostinyBuild
154 腾起之蛇 Oct 15, 2019 $7.99N/A (N/A)0 .. 20,0000%00:00 (00:00)炎帝归乡炎帝归乡
155 Hello Neighbor Alpha 2 Oct 15, 2019 FreeN/A (N/A)100,000 .. 200,0000%00:00 (00:00)Dynamic PixelstinyBuild
156 The Terrible Old Man Oct 10, 2019 FreeN/A (N/A)100,000 .. 200,0000%00:00 (00:00)Cloak and Dagger GamesCloak and Dagger Games
157 Worse Than Death Oct 8, 2019 $9.99N/A (N/A)0 .. 20,0000%00:00 (00:00)Benjamin Rivers Inc.Benjamin Rivers Inc.
158 NAVALNY: A Nightmare of Corrupt Sep 27, 2019 N/AN/A (N/A)0 .. 20,0000%00:00 (00:00)LightCAT gamingLightCAT gaming
159 Showdown Bandit Sep 17, 2019 N/AN/A (N/A)50,000 .. 100,0000%00:00 (00:00)Kindly BeastKindly Beast
160 Okaeri Sep 6, 2019 $2.39N/A (N/A)0 .. 20,0000%00:00 (00:00)Chilla's ArtChilla's Art
161 Lighthouse of guiding flames Aug 28, 2019 $4.99N/A (N/A)0 .. 20,0000%00:00 (00:00)TomoToroNARRATIVE NINE LTD
162 Kill or Love Aug 17, 2019 FreeN/A (N/A)50,000 .. 100,0000%00:00 (00:00)Andy ChurchAndy Church
163 DARQ: Complete Edition Aug 15, 2019 $19.99N/A (N/A)100,000 .. 200,0000%00:00 (00:00)Unfold GamesUnfold Games
164 Don't Die Aug 8, 2019 $9.99N/A (N/A)0 .. 20,0000%00:00 (00:00)Zgame StudioZgame Studio
165 Dry Drowning Aug 2, 2019 $19.99N/A (N/A)50,000 .. 100,0000%00:00 (00:00)Studio V, VLGLeonardo Interactive, WhisperGames
166 Don't Escape Trilogy Jul 29, 2019 $4.99N/A (N/A)0 .. 20,0000%00:00 (00:00)scriptwelderArmor Games Studios
167 She Sees Red - Interactive Movie Jul 11, 2019 $2.39N/A (N/A)100,000 .. 200,0000%00:00 (00:00)RhinotalesRhinotales
168 Them Bombs Jul 10, 2019 $10.99N/A (N/A)0 .. 20,0000%00:00 (00:00)Yellow DotYellow Dot
169 Fear in Hospital Jul 3, 2019 FreeN/A (N/A)100,000 .. 200,0000%00:00 (00:00)IO GamesIO Games
170 Meridian 157: Prologue Jun 30, 2019 FreeN/A (N/A)20,000 .. 50,0000%00:00 (00:00)NovaSoft Interactive Ltd.NovaSoft Interactive Ltd.
171 7 Lives Jun 20, 2019 $0.99N/A (N/A)0 .. 20,0000%00:00 (00:00)jota-gilTbardo Games
172 HomeWork Is Crazy / 作业疯了 Jun 13, 2019 $7.99N/A (N/A)200,000 .. 500,0000%00:00 (00:00)三脚猫Gamera Game
173 Scenner Jun 11, 2019 $6.99N/A (N/A)0 .. 20,0000%00:00 (00:00)mexicozmexicoz
174 Hello Neighbor Pre-Alpha Jun 6, 2019 FreeN/A (N/A)50,000 .. 100,00011.11%00:02 (00:00)Dynamic PixelstinyBuild
175 Hello Neighbor Alpha 1 Jun 6, 2019 FreeN/A (N/A)100,000 .. 200,00011.11%00:14 (00:04)Dynamic PixelstinyBuild
176 Siberian Run VR May 16, 2019 $4.99N/A (N/A)0 .. 20,0000%00:00 (00:00)Unsin Studio, EJRGamesUnsin Studio
177 Sumatra: Fate of Yandi May 14, 2019 $6.99N/A (N/A)0 .. 20,0000%00:00 (00:00)Cloak and Dagger GamesCloak and Dagger Games
178 World of Virtual Reality VR May 11, 2019 $5.99N/A (N/A)0 .. 20,0000%00:00 (00:00)Shadowless Gaming, Tamer GölgesizShadowless Gaming, Tamer Gölgesiz
179 夕鬼 零 Yuoni: Rises Apr 30, 2019 $11.99N/A (N/A)0 .. 20,0000%00:00 (00:00)Tricore Inc.Tricore Inc.
180 Diacrisis Apr 26, 2019 $9.99N/A (N/A)0 .. 20,0000%00:00 (00:00)Luan Prates de SouzaLuan Prates de Souza
181 Truth: Disorder III — Gemini / 真実:障害III - 双子座 Apr 24, 2019 $2.59N/A (N/A)0 .. 20,0000%00:00 (00:00)ReallySJustE Publishing
182 祭品的逆襲 The Counterattack Of Sacrifice Apr 21, 2019 $3.99N/A (N/A)0 .. 20,0000%00:00 (00:00)戴永翔(Dai Yong Xiang)戴永翔(Dai Yong Xiang)
183 Paper Dolls: Original / 纸人 Apr 19, 2019 $16.99N/A (N/A)100,000 .. 200,0000%00:00 (00:00)Beijing Litchi Culture Media Co., Ltd.Gamera Game, Beijing Litchi Culture Media Co., Ltd.
184 Save Koch Apr 18, 2019 $11.99N/A (N/A)0 .. 20,0000%00:00 (00:00)Wooden MonkeysBigGame Publishing
185 Krampus is Home Mar 22, 2019 $14.99N/A (N/A)0 .. 20,0000%00:00 (00:00)Regl StudiosRegl Studios
186 Don't Escape: 4 Days to Survive Mar 11, 2019 $14.99N/A (N/A)50,000 .. 100,0000%00:00 (00:00)scriptwelderArmor Games Studios
187 Your Future Self Mar 8, 2019 $2.99N/A (N/A)0 .. 20,0000%00:00 (00:00)Contortionist GamesContortionist Games
188 Forgiveness : Escape Room Feb 28, 2019 $9.99N/A (N/A)0 .. 20,0000%00:00 (00:00)Chaos MindsChaos Minds
189 Wounded - The Beginning Feb 28, 2019 $6.99N/A (N/A)0 .. 20,0000%00:00 (00:00)Workbench EntertainmentWorkbench Entertainment
190 Cartonfall Feb 27, 2019 $7.99N/A (N/A)0 .. 20,0000%00:00 (00:00)kuklam studioskuklam studios
191 The Cursed Forest Feb 26, 2019 $13.99N/A (N/A)20,000 .. 50,0000%00:00 (00:00)KPy3O, NoostycheNoostyche, Pleasant Rain Ltd
192 Pacify Feb 22, 2019 $3.49N/A (N/A)1,000,000 .. 2,000,0003.54%00:55 (01:12)Shawn HitchcockHitchcock Games
193 STEINS;GATE ELITE Feb 19, 2019 $59.99N/A (N/A)0 .. 20,0000%00:00 (00:00)MAGES. Inc.Spike Chunsoft Co., Ltd.
194 Ellen Feb 15, 2019 $9.99N/A (N/A)0 .. 20,0000%00:00 (00:00)Red Mount Media, AntarsoftRed Mount Media
195 CHAOS;CHILD Jan 22, 2019 $34.99N/A (N/A)20,000 .. 50,0000%00:00 (00:00)MAGES. Inc.Spike Chunsoft Co., Ltd.
196 Ruthless Water Jan 8, 2019 FreeN/A (N/A)50,000 .. 100,0000%00:00 (00:00)贪婪龙贪婪龙
197 Eldritch Academy Jan 4, 2019 $11.99N/A (N/A)20,000 .. 50,0000%00:00 (00:00)NightshadeNightshade
198 Deathdays End Dec 26, 2018 $0.99N/A (N/A)0 .. 20,0000%00:00 (00:00)Anonymous GamesAnonymous Games
199 The Subject Nov 30, 2018 $4.99N/A (N/A)20,000 .. 50,0000%00:00 (00:00)DarkStone DigitalDarkStone Digital
200 Legends of Koyannis Nov 15, 2018 $0.99N/A (N/A)0 .. 20,0000%00:00 (00:00)Koyannis GamesKoyannis Games
201 Viviette Oct 18, 2018 $9.99N/A (N/A)0 .. 20,0000%00:00 (00:00)DYA GamesDYA Games
202 Hang Up Oct 16, 2018 FreeN/A (N/A)0 .. 20,0000%00:00 (00:00)Shadow FactoryShadow Factory
203 The Poisoner (Prelude) Oct 10, 2018 N/AN/A (N/A)0 .. 20,0000%00:00 (00:00)PlatformaVRPlatformaVR
204 The Works of Mercy Sep 26, 2018 $14.99N/A (N/A)0 .. 20,0000%00:00 (00:00)PeпtaclePeпtacle
205 Yokai Mask Sep 20, 2018 $1.99N/A (N/A)0 .. 20,0000%00:00 (00:00)CATECATE
206 Silence in Space - Season One Sep 4, 2018 $1.99N/A (N/A)50,000 .. 100,0000%00:00 (00:00)Gisa FerreiraGlitch Pixel
207 Drawn Down Aug 31, 2018 $2.99N/A (N/A)0 .. 20,0000%00:00 (00:00)Studio HazyStudio Hazy
208 Seul (Alone): The entrée Aug 31, 2018 $2.99N/A (N/A)0 .. 20,0000%00:00 (00:00)Paranormal GamesParanormal Games
209 Mechanism Jul 19, 2018 $12.99N/A (N/A)0 .. 20,0000%00:00 (00:00)Alexander GoodwinAlexander Goodwin
210 Stifled - Echolocation Horror Mystery Jul 10, 2018 $19.99N/A (N/A)0 .. 20,0000%00:00 (00:00)Gattai GamesGattai Games
211 Tomato Way 2 Jul 10, 2018 $3.99N/A (N/A)0 .. 20,0000%00:00 (00:00)Vladislav Castillo GonzalezVladislav Castillo Gonzalez
212 Panic Room 2: Hide and Seek Jul 9, 2018 FreeN/A (N/A)50,000 .. 100,0000%00:00 (00:00)GameXP.comGameXP.com
213 18 Floors Jul 3, 2018 $14.99N/A (N/A)100,000 .. 200,0000%00:00 (00:00)Aoga GamesAoga Games
214 灵魂筹码 Soul at Stake Jun 25, 2018 $17.99N/A (N/A)200,000 .. 500,0000%00:00 (00:00)Chongming StudioChongming Studio
215 Vein Hotel Jun 16, 2018 $3.99N/A (N/A)0 .. 20,0000%00:00 (00:00)阿屁PP314阿屁PP314
216 Fading Visage May 29, 2018 $3.99N/A (N/A)0 .. 20,0000%00:00 (00:00)Simulators GearSimulators Gear
217 Drizzlepath: Deja Vu May 25, 2018 $3.99N/A (N/A)0 .. 20,0000%00:00 (00:00)Tonguç BodurTonguç Bodur
218 STAY May 16, 2018 $11.99N/A (N/A)50,000 .. 100,0000%00:00 (00:00)Appnormals TeamAppnormals Team
219 LOVE Obsession May 6, 2018 $11.99N/A (N/A)0 .. 20,0000%00:00 (00:00)MegatonMegaton
220 My Safe House Apr 20, 2018 $1.99N/A (N/A)0 .. 20,0000%00:00 (00:00)StoryTale StudiosStoryTale Studios
221 Golfing Over It with Alva Majo Mar 28, 2018 $4.99N/A (N/A)50,000 .. 100,0000%00:00 (00:00)MajorariattoMajorariatto
222 Deadstep Mar 9, 2018 $4.99N/A (N/A)0 .. 20,0000%00:00 (00:00)Sangwoon JinFLUXJIN
223 Tren0 Feb 22, 2018 $2.99N/A (N/A)50,000 .. 100,0000%00:00 (00:00)BubbleINDIECN
224 Football Game Feb 13, 2018 $0.99N/A (N/A)20,000 .. 50,0000%00:00 (00:00)Cloak and Dagger GamesCloak and Dagger Games
225 初颜 - The Prototype Feb 6, 2018 $11.99N/A (N/A)0 .. 20,0000%00:00 (00:00)发胶事务所 Hairgel Agency发胶事务所 Hairgel Agency
226 Keys Feb 2, 2018 $0.99N/A (N/A)0 .. 20,0000%00:00 (00:00)Bloody Forehead EntertainmentBloody Forehead Entertainment
227 Please close the doors Jan 29, 2018 $4.99N/A (N/A)50,000 .. 100,0000%00:00 (00:00)Koyotis StudioКиКо
228 Play With Me: Escape room Jan 17, 2018 $2.99N/A (N/A)20,000 .. 50,0000%00:00 (00:00)AiremAirem
229 The Ghosts of Hackney Mills Nov 20, 2017 $1.99N/A (N/A)20,000 .. 50,0000%00:00 (00:00)Sapphire Dragon ProductionsSapphire Dragon Productions
230 Dead Link: Pages Torn Nov 17, 2017 $2.99N/A (N/A)0 .. 20,0000%00:00 (00:00)phime studio LLCphime studio LLC
231 Sorry, James Nov 10, 2017 $2.49N/A (N/A)50,000 .. 100,0000%00:00 (00:00)KonstructorsHook Games, GrabTheGames, WhisperGames
232 Broken Minds Nov 3, 2017 $6.99N/A (N/A)20,000 .. 50,0000%00:00 (00:00)LockedOnLockedOn
233 SIMULACRA Oct 26, 2017 $4.99N/A (N/A)100,000 .. 200,0000%00:00 (00:00)Kaigan Games OÜKaigan Games OÜ, Neon Doctrine
234 The Painscreek Killings Sep 27, 2017 $19.99N/A (N/A)100,000 .. 200,0000%00:00 (00:00)EQ StudiosEQ Studios
235 Seeking Evil: The Wendigo Sep 11, 2017 $4.99N/A (N/A)50,000 .. 100,0000%00:00 (00:00)CopybugpasteCopybugpaste
236 TAURONOS Aug 4, 2017 $4.99N/A (N/A)20,000 .. 50,0000%00:00 (00:00)cavalie_ro, S.C. 16 BIT NIGHTS S.R.L.S.C. 16 BIT NIGHTS S.R.L.
237 Please Jun 24, 2017 $0.99N/A (N/A)0 .. 20,0000%00:00 (00:00)Mute CanaryMute Canary
238 Oats Studios - Volume 1 Assets Jun 14, 2017 FreeN/A (N/A)0 .. 20,0000%00:00 (00:00)Oats StudiosOats Studios
239 Phantasma VR Jun 12, 2017 $9.99N/A (N/A)0 .. 20,0000%00:00 (00:00)The Shady GentlemenThe Shady Gentlemen
240 Kid,napper: Gosh, I'm Kidnapped by a Pupil Jun 1, 2017 FreeN/A (N/A)200,000 .. 500,0000%00:00 (00:00)CatnipCatnip
241 The Falconers: Moonlight Apr 18, 2017 $9.99N/A (N/A)0 .. 20,0000%00:00 (00:00)Bionic PenguinSekai Project
242 Kio's Adventure Apr 7, 2017 $1.99N/A (N/A)200,000 .. 500,0000%00:00 (00:00)Spacelight StudioSpacelight Studio
243 The Morgue Fissure Between Worlds Mar 31, 2017 $0.99N/A (N/A)0 .. 20,0000%00:00 (00:00)Zoltok'sN/A
244 Shadows Peak Mar 13, 2017 $9.99N/A (N/A)20,000 .. 50,0000%00:00 (00:00)Andrii VintsevychAndrii Vintsevych
245 A Girls Fabric Face Mar 10, 2017 $2.99N/A (N/A)0 .. 20,0000%00:00 (00:00)Stanislaw TruchowskiTurnVex
246 Darkarta: A Broken Heart's Quest Collector's Edition Mar 8, 2017 $9.99N/A (N/A)50,000 .. 100,0000%00:00 (00:00)Tuttifrutti InteractiveTuttifrutti Interactive
247 Among the Innocent: A Stricken Tale Feb 14, 2017 N/AN/A (N/A)0 .. 20,0000%00:00 (00:00)Zero Degrees GamesZero Degrees Games
248 Fumiko! Feb 13, 2017 $6.99N/A (N/A)50,000 .. 100,0000%00:00 (00:00)Fumiko GamesFumiko Games
249 The Butterfly Sign Dec 13, 2016 $4.99N/A (N/A)200,000 .. 500,0000%00:00 (00:00)Quantum Phoenix Studio, Michail Romanov, Denis Esie, Bogdan Rozymny, Artem Lynev, Artur SamoylenkoQuantum Phoenix Studio
250 Coffin of Ashes Dec 8, 2016 $6.99N/A (N/A)100,000 .. 200,0000%00:00 (00:00)Ladomu, Angels Blue Digital Entertainment, DigitalEZDigitalEZ
251 Tomato Way Dec 7, 2016 $3.99N/A (N/A)0 .. 20,0000%00:00 (00:00)Vladislav Castillo GonzalezVladislav Castillo Gonzalez
252 ARAYA Nov 24, 2016 $14.99N/A (N/A)50,000 .. 100,0000%00:00 (00:00)MAD Virtual Reality StudioMAD Virtual Reality Studio
253 Silhouette: Chapter One Nov 13, 2016 N/AN/A (N/A)0 .. 20,0000%00:00 (00:00)Apeirogon GamesApeirogon Games
254 The Survey Oct 27, 2016 $4.99N/A (N/A)20,000 .. 50,0000%00:00 (00:00)Robert GammonRobert Gammon
255 Help Oct 13, 2016 $0.49N/A (N/A)50,000 .. 100,0000%00:00 (00:00)Volens Nolens GamesVolens Nolens Games
256 The Multidimensional Underwear Drawer Aug 31, 2016 $24.99N/A (N/A)0 .. 20,0000%00:00 (00:00)KamiyaSoftBirchTreeGames
257 Minds Eyes Aug 31, 2016 FreeN/A (N/A)200,000 .. 500,0000%00:00 (00:00)Stanislaw TruchowskiTurnVex
258 SHINRAI - Broken Beyond Despair Aug 26, 2016 $14.99N/A (N/A)0 .. 20,0000%00:00 (00:00)Gosatsu Visual NovelsGosatsu Visual Novels
259 Asemblance Jun 21, 2016 $7.99N/A (N/A)0 .. 20,0000%00:00 (00:00)Nilo StudiosNilo Studios
260 G-senjou no Maou - The Devil on G-String Nov 5, 2015 $19.99N/A (N/A)0 .. 20,0000%00:00 (00:00)AKABEiSOFT2Sekai Project
261 Mirrored - Chapter 1 Oct 30, 2015 $0.99N/A (N/A)20,000 .. 50,0000%00:00 (00:00)Kelkafa Studios, Cardboard Sword Limited, Jet Stone StudiosKelkafa Studios
262 Nevermind Sep 29, 2015 $19.99N/A (N/A)50,000 .. 100,0000%00:00 (00:00)Flying MolluskFlying Mollusk
263 Nyctophilia Sep 23, 2015 FreeN/A (N/A)100,000 .. 200,0000%00:00 (00:00)Cat In A Jar GamesCat In A Jar Games
264 Knee Deep Jul 6, 2015 $19.99N/A (N/A)0 .. 20,0000%00:00 (00:00)Prologue GamesPrologue Games
265 A Date in the Park Nov 14, 2014 FreeN/A (N/A)100,000 .. 200,0000%00:00 (00:00)Cloak and Dagger GamesCloak and Dagger Games
266 Deep Eclipse: New Space Odyssey Oct 28, 2014 $0.99N/A (N/A)50,000 .. 100,00025%01:13 (00:24)Ultravision InteractiveTrinity Project
267 Lifeless Planet Premier Edition Jun 6, 2014 $19.99N/A (N/A)200,000 .. 500,0000%00:00 (00:00)Stage 2 StudiosSerenity Forge
268 WORLD END ECONOMiCA episode.01 May 5, 2014 $12.99N/A (N/A)50,000 .. 100,0000%00:00 (00:00)Spicy TailsSekai Project
269 Nicole Oct 17, 2013 $18.99N/A (N/A)0 .. 20,0000%00:00 (00:00)Winter WolvesWinter Wolves
270 Cognition: An Erica Reed Thriller Sep 19, 2013 $14.99N/A (N/A)200,000 .. 500,0000%00:00 (00:00)Phoenix Online StudiosPhoenix Online Publishing
271 The 39 Steps Apr 25, 2013 $4.99N/A (N/A)200,000 .. 500,0000%00:00 (00:00)The Story MechanicsThe Secret Experiment
272 Notch - The Innocent LunA: Eclipsed SinnerS Feb 18, 2012 $9.99N/A (N/A)100,000 .. 200,0000%00:00 (00:00)Angels Blue Digital Entertainment, DigitalEZDigitalEZ
273 Sanitarium Apr 30, 1998 $3.99N/A (N/A)200,000 .. 500,0000%00:00 (00:00)Dotemu, DreamForge IntertainmentDotemu
274 Return of the Phantom Sep 1, 1993 $6.99N/A (N/A)20,000 .. 50,0000%00:00 (00:00)MPS LabsZiggurat
275 Wonhon: A Vengeful Spirit Q2 2021 N/AN/A (N/A)0 .. 20,0000%00:00 (00:00)BUSAN SANAI GAMESSuper.com
276 Haunt Chaser Jul 15, 2021 $14.99N/A (N/A)0 .. 20,0000%00:00 (00:00)Clock Wizard GamesClock Wizard Games
277 Last Message Jun 24, 2021 FreeN/A (N/A)0 .. 20,0000%00:00 (00:00)JamesGamesNZJamesGamesNZ
278 The Corruption Within Jun 9, 2021 $7.49N/A (N/A)0 .. 20,0000%00:00 (00:00)Cosmic Void, Dave SeamanCosmic Void
279 幽灵高校(Ghost College) May 28, 2021 FreeN/A (N/A)20,000 .. 50,0000%00:00 (00:00)血色双眸血色双眸
280 Here I Come May 27, 2021 $9.99N/A (N/A)0 .. 20,0000%00:00 (00:00)Crystar GamesCrystar Games
281 The Sin May 20, 2021 $4.99N/A (N/A)50,000 .. 100,0000%00:00 (00:00)Baba NuraBaba Nura, Feodosiy
282 Noch May 19, 2021 $8.99N/A (N/A)50,000 .. 100,0000%00:00 (00:00)Fair Games Studio, NoostycheFair Games Studio, Pleasant Rain Ltd
283 Aerial_Knight's Never Yield May 19, 2021 $11.99N/A (N/A)0 .. 20,0000%00:00 (00:00)Aerial_KnightHeadup
284 Jin Conception May 12, 2021 $14.99N/A (N/A)0 .. 20,0000%00:00 (00:00)Jin Wave Studio LLCJin Wave Studio LLC
285 OBSCURY : THE LAST Apr 30, 2021 N/AN/A (N/A)0 .. 20,0000%00:00 (00:00)Joulion StudioJoulion Studio
286 Control:Override Apr 20, 2021 $2.99N/A (N/A)0 .. 20,0000%00:00 (00:00)B-Deshi InteractiveBrain Station 23 Ltd.
287 Project Boost Apr 17, 2021 $5.99N/A (N/A)20,000 .. 50,0000%00:00 (00:00)Immersion PlusImmersion Plus
288 Causality Apr 16, 2021 $6.29N/A (N/A)50,000 .. 100,0000%00:00 (00:00)WAFFLE GAMESPsychoFlux Entertainment
289 Happy Bones Apr 15, 2021 $4.99N/A (N/A)20,000 .. 50,0000%00:00 (00:00)Frosted Fears Game StudiosFrosted Fears Game Studios
290 ASPEN Apr 14, 2021 $4.99N/A (N/A)0 .. 20,0000%00:00 (00:00)Molloy StudioMolloy Studio
291 I Saw Black Clouds Mar 30, 2021 $12.99N/A (N/A)0 .. 20,0000%00:00 (00:00)Ghost Dog FilmsWales Interactive
292 Problem Here Mar 29, 2021 $9.99N/A (N/A)0 .. 20,0000%00:00 (00:00)Deep Range StudioDeep Range Studio
293 MazM: The Phantom of the Opera Mar 25, 2021 $10.49N/A (N/A)0 .. 20,0000%00:00 (00:00)Growing SeedsCFK Co., Ltd.
294 The Fabled Woods Mar 25, 2021 $9.99N/A (N/A)0 .. 20,0000%00:00 (00:00)CyberPunch StudiosHeadup
295 村庄-The Village Mar 24, 2021 $8.99N/A (N/A)20,000 .. 50,0000%00:00 (00:00)橙光游戏橙光游戏
296 Undiscovered House Mar 24, 2021 $2.49N/A (N/A)0 .. 20,0000%00:00 (00:00)Sysreb GamesSysreb Games
297 ROUGH KUTS: Night of the Living Dead Mar 23, 2021 $1.99N/A (N/A)50,000 .. 100,0000%00:00 (00:00)ROUGH KUTSROUGH KUTS
298 Sanity of Morris Mar 23, 2021 $14.99N/A (N/A)0 .. 20,0000%00:00 (00:00)Alterego GamesStickyLock Studios
299 Inspector Waffles Mar 23, 2021 $12.99N/A (N/A)0 .. 20,0000%00:00 (00:00)Goloso GamesHitcents
300 Escape / 逃脱 Mar 20, 2021 FreeN/A (N/A)20,000 .. 50,0000%00:00 (00:00)Darktree GameDarktree Game
301 Snow Survival Mar 19, 2021 $11.99N/A (N/A)0 .. 20,0000%00:00 (00:00)3m0 studio3m0 studio
302 Mr. Walker's Basement Mar 16, 2021 $4.99N/A (N/A)0 .. 20,0000%00:00 (00:00)digitalbathtubdigitalbathtub
303 Adios Mar 16, 2021 $17.99N/A (N/A)0 .. 20,0000%00:00 (00:00)MischiefMischief
304 A Siren's Call Mar 15, 2021 $4.99N/A (N/A)20,000 .. 50,0000%00:00 (00:00)Raven Blood EntertainmentRaven Blood Entertainment
305 Concealment Mar 14, 2021 $3.99N/A (N/A)20,000 .. 50,0000%00:00 (00:00)HorrorTheoryHorrorTheory
306 Depth 6 Mar 12, 2021 $4.99N/A (N/A)50,000 .. 100,0000%00:00 (00:00)Stanislaw TruchowskiTurnVex
307 Mystery Tales: Master of Puppets Collector's Edition Mar 5, 2021 $13.99N/A (N/A)0 .. 20,0000%00:00 (00:00)Domini GamesBig Fish Games
308 Stories of Liane Mar 1, 2021 FreeN/A (N/A)20,000 .. 50,0000%00:00 (00:00)Gearshift MediaGearshift Media
309 Desdemona Mar 1, 2021 $9.99N/A (N/A)50,000 .. 100,0000%00:00 (00:00)Batuhan GunerBatuhan Guner
310 Horror Squad Feb 26, 2021 $4.99N/A (N/A)0 .. 20,0000%00:00 (00:00)Cheesecake DevCheesecake Dev
311 A Wake Inn Feb 25, 2021 $19.99N/A (N/A)0 .. 20,0000%00:00 (00:00)VR BrosVR Bros
312 Tested on Humans: Escape Room Feb 24, 2021 $9.99N/A (N/A)20,000 .. 50,0000%00:00 (00:00)mc2gamesmc2games
313 Black Cat Feb 24, 2021 $0.89N/A (N/A)0 .. 20,0000%00:00 (00:00)Viktor KoroteyevViktor Koroteyev
314 Find Yourself Feb 21, 2021 $4.68N/A (N/A)0 .. 20,0000%00:00 (00:00)EMIKA_GAMESEMIKA_GAMES
315 Horatama Feb 19, 2021 $3.99N/A (N/A)0 .. 20,0000%00:00 (00:00)Julian Hernandez, Caroline Laber-Smith, Miriam Suarez, Emmanuel MalleaTeam Horatama
316 Lucid Cycle Feb 19, 2021 $3.99N/A (N/A)0 .. 20,0000%00:00 (00:00)Tonguç BodurTonguç Bodur
317 Suicide Countdown: 7 Days Feb 12, 2021 $2.99N/A (N/A)50,000 .. 100,0000%00:00 (00:00)致意致意
318 Lost Angel Feb 10, 2021 $19.99N/A (N/A)0 .. 20,0000%00:00 (00:00)Dolphin media, Intofeel CompanyDolphin media, Intofeel Company
319 Erzurum Feb 10, 2021 $1.49N/A (N/A)50,000 .. 100,00050%01:56 (00:58)Proximity GamesProximity Games
320 Head AS Code Feb 9, 2021 $19.99N/A (N/A)0 .. 20,0000%00:00 (00:00)Miracle MoonMiracle Moon
321 Martha Feb 8, 2021 $3.99N/A (N/A)0 .. 20,0000%00:00 (00:00)Affordable CatAffordable Cat
322 孙美琪疑案 第四季 Feb 5, 2021 N/AN/A (N/A)50,000 .. 100,0000%00:00 (00:00)QZQ StudioH.P.Y.S,LLC
323 Bounce Feb 5, 2021 $2.99N/A (N/A)0 .. 20,0000%00:00 (00:00)Rare Camel StudiosRare Camel Studios
324 NUTS Feb 4, 2021 $19.99N/A (N/A)20,000 .. 50,0000%00:00 (00:00)Joon, Pol, Muutsch, Char & TorfiNoodlecake
325 Firework Feb 3, 2021 $9.99N/A (N/A)200,000 .. 500,0000%00:00 (00:00)拾英工作室Gamera Game
326 回门 Way Back Home Jan 29, 2021 $14.99N/A (N/A)0 .. 20,0000%00:00 (00:00)Finches Games方块游戏(CubeGame)
327 Monstrum 2 Jan 28, 2021 $14.99N/A (N/A)50,000 .. 100,0000%00:00 (00:00)Team JunkfishJunkfish Limited
328 Hidden Shelter Jan 27, 2021 $8.9N/A (N/A)0 .. 20,0000%00:00 (00:00)White VortexWhite Vortex
329 Ghost in the pool Jan 27, 2021 $4.99N/A (N/A)0 .. 20,0000%00:00 (00:00)CASCHA GAMESCASCHA GAMES
330 VR Girls’ Room in Darkness Jan 26, 2021 $4.99N/A (N/A)0 .. 20,0000%00:00 (00:00)William at OxfordWilliam at Oxford
331 Security Guy vs AI: The Dawn of AI Jan 24, 2021 FreeN/A (N/A)0 .. 20,0000%00:00 (00:00)Alexander Bogdanov, Alexandrina SvitsynaAlexander Bogdanov
332 Operator Jan 23, 2021 $0.99N/A (N/A)20,000 .. 50,0000%00:00 (00:00)Chemical Games StudioChemical Games Studio
333 Monstrum 2 Beta Jan 22, 2021 N/AN/A (N/A)200,000 .. 500,0000%00:00 (00:00)Team JunkfishJunkfish Limited
334 Fragments Jan 20, 2021 $2.99N/A (N/A)0 .. 20,0000%00:00 (00:00)codapillcodapill
335 Misery Mansion Jan 19, 2021 $17.99N/A (N/A)0 .. 20,0000%00:00 (00:00)Manic MiceManic Mice
336 戾谈 Jan 18, 2021 $0.89N/A (N/A)100,000 .. 200,0000%00:00 (00:00)SPG MistarilleSPG Mistarille
337 Race To Sanity Jan 15, 2021 $0.99N/A (N/A)0 .. 20,0000%00:00 (00:00)Sinned GamesSinned Games
338 Leak Elite Jan 14, 2021 $9.99N/A (N/A)20,000 .. 50,0000%00:00 (00:00)micatrixmicatrix
339 MADE : Interactive Movie – 01. Run away! Jan 12, 2021 $14.99N/A (N/A)0 .. 20,0000%00:00 (00:00)JOONSPICTURESJOONSPICTURES
340 Lost Brothers Jan 12, 2021 $8.99N/A (N/A)0 .. 20,0000%00:00 (00:00)BitLightBitLight
341 Under Lock Jan 12, 2021 $9.99N/A (N/A)0 .. 20,0000%00:00 (00:00)ShakitumShakitum
342 Francisca 2 Jan 7, 2021 $0.99N/A (N/A)0 .. 20,0000%00:00 (00:00)Biscuit PlayBiscuit Play
343 The Sentinel (Old Version) Dec 31, 2020 N/AN/A (N/A)0 .. 20,0000%00:00 (00:00)Studio SkeletonStudio Skeleton
344 Freaky Clown : Town Mystery Dec 27, 2020 FreeN/A (N/A)20,000 .. 50,0000%00:00 (00:00)Z & K GamesZ & K Games
345 CRYPTIC Dec 25, 2020 $2.24N/A (N/A)0 .. 20,0000%00:00 (00:00)Shoho GamesShoho Games
346 Orange Cast: Prologue Dec 24, 2020 FreeN/A (N/A)100,000 .. 200,0000%00:00 (00:00)Team RezValkyrie Initiative
347 The Lodge Dec 22, 2020 FreeN/A (N/A)0 .. 20,0000%00:00 (00:00)Mad Mountain Studios, Professor David Lopez, Jordan Zimmer - Executive Producer, Miles Zimmer - Producer, Murphy Buck - Creative Director, Dylan Rose - Art Lead, Joshua Mariscal - Design Lead, Scott Hawley - Engineering Lead, Kat Underhill - Cogswell University
348 Hello Guest: Hello Neighbor 2 pre-alpha Dec 22, 2020 FreeN/A (N/A)0 .. 20,00016.67%00:33 (00:11)Eerie Guest, tinyBuildtinyBuild
349 Hand Simulator: Horror Dec 21, 2020 $2.99N/A (N/A)20,000 .. 50,0000%00:00 (00:00)HFM GamesHFM Games
350 Don't Be Afraid Dec 17, 2020 $13.99N/A (N/A)0 .. 20,0000%00:00 (00:00)Hydra Games S.A., Limo Games, Broken Arrow GamesHydra Games S.A.
351 World War Academy: COMMANDER 1 Dec 10, 2020 $13.99N/A (N/A)20,000 .. 50,0000%00:00 (00:00)Xu MipingXu Miping
352 ALLBLACK Phase 1 Dec 5, 2020 FreeN/A (N/A)20,000 .. 50,0000%00:00 (00:00)NSAIDNSAID
353 Control Over Dec 2, 2020 $8.99N/A (N/A)0 .. 20,0000%00:00 (00:00)AshcraftAshcraft
354 Pleiades - A Subversion Saga Game Nov 22, 2020 $7.99N/A (N/A)20,000 .. 50,0000%00:00 (00:00)Joshua Linscott, 1122 IndustriesJoshua Linscott, 1122 Industries
355 Overslept Nov 22, 2020 $1.99N/A (N/A)0 .. 20,0000%00:00 (00:00)Justus YewJarze Games
356 LUNA Nov 20, 2020 FreeN/A (N/A)20,000 .. 50,0000%00:00 (00:00)SimplePsychoFlux Entertainment
357 The Dark Method Nov 19, 2020 $24.99N/A (N/A)0 .. 20,0000%00:00 (00:00)Analog Joker LLCAnalog Joker LLC
358 S H R i M P Nov 16, 2020 $6.99N/A (N/A)20,000 .. 50,0000%00:00 (00:00)Seniattus StudiosSeniattus Studios
359 XIBALBA Nov 13, 2020 $7.99N/A (N/A)20,000 .. 50,0000%00:00 (00:00)Reef SoftwareReef Software
360 B.D.K Nov 13, 2020 $4.99N/A (N/A)0 .. 20,0000%00:00 (00:00)EDOEDO
361 Krakatoa Nov 11, 2020 $4.99N/A (N/A)50,000 .. 100,0000%00:00 (00:00)Splint GamesSplint Games
362 Cover Your Eyes Nov 6, 2020 $6.49N/A (N/A)0 .. 20,0000%00:00 (00:00)StarSkippStarSkipp
363 Damned Hand Nov 6, 2020 $5.99N/A (N/A)0 .. 20,0000%00:00 (00:00)ApplykatApplykat
364 Superliminal Nov 5, 2020 $19.99N/A (N/A)500,000 .. 1,000,0000%00:00 (00:00)Pillow CastlePillow Castle
365 DOGMAN Nov 5, 2020 $2.99N/A (N/A)50,000 .. 100,0000%00:00 (00:00)Daniel GeorgeDaniel George
366 Lurkers Nov 2, 2020 $5.99N/A (N/A)0 .. 20,0000%00:00 (00:00)Ertal GamesErtal Games
367 Floor 13: Deep State Nov 2, 2020 $19.99N/A (N/A)0 .. 20,0000%00:00 (00:00)Oversight ProductionsHumble Games
368 恋爱绮谭~不存在的夏天~ Oct 31, 2020 $8.99N/A (N/A)50,000 .. 100,0000%00:00 (00:00)Never Knows BestNever Knows Best
369 Today Is My Birthday Oct 30, 2020 $9.99N/A (N/A)0 .. 20,0000%00:00 (00:00)Wonder GamesCRYTlVO
370 Siren Head: Awakening Oct 30, 2020 FreeN/A (N/A)20,000 .. 50,0000%00:00 (00:00)Prisma Games L.L.C.Prisma Games L.L.C.
371 Strobophagia | Rave Horror Oct 28, 2020 $19.99N/A (N/A)500,000 .. 1,000,0000%00:00 (00:00)Green Tile DigitalGreen Tile Digital
372 Ratten Reich - Dance of Kings Oct 25, 2020 FreeN/A (N/A)50,000 .. 100,0000%00:00 (00:00)MASMAS
373 Mask of Sanity Oct 23, 2020 $5.99N/A (N/A)0 .. 20,0000%00:00 (00:00)UNICORE Games StudiosUNICORE Games Studios
374 Iwaihime Oct 23, 2020 $29.99N/A (N/A)0 .. 20,0000%00:00 (00:00)DMM GAMESShiravune
375 Absinth Oct 23, 2020 $6.99N/A (N/A)0 .. 20,0000%00:00 (00:00)blackHound GmbHblackHound GmbH
376 project BLARI Oct 20, 2020 $5.99N/A (N/A)20,000 .. 50,0000%00:00 (00:00)MaxEstLaMaxEstLa
377 Palindrome Syndrome: Escape Room Oct 14, 2020 $9.99N/A (N/A)20,000 .. 50,0000%00:00 (00:00)mc2gamesmc2games
Overview

Thriller

Games with this tag: 377
Average userscore: N/A%
Average metascore: 70.89%
Average playtime: 01:24
Total copies owned: 44,746,000
Average price: $10.21
Help

Owners: Estimated number of people owning this game. The number might be way too small for new releases and sometimes way too big for games that had free weekend event recently. Read more on About page.

Playtime: Average hours played in total per person that have actually launched this game since March 2009. This time is calculated for the whole lifetime, not for the particular year.

Average score: Average users and metacritic score for all games with this score assigned.

Average playtime: Average lifetime playtime for all games where this data is available.

Games in this genre: Self-explaining - number of games with this tag. Only inculdes games with sales data available.

Total copies owned: Refers to total copies of games with this tag acquired by users for the lifetime. Includes copies sold, downloaded for free and given out.

This number might be too small for recently released games or too big for games that had a free weekend in the last couple of months.

Graphs

Login required.

Please register or log in to see this information.

Login required.

Please register or log in to see this information.